Water Valley, Texas
Current Conditions -  °F | °C
As of 6:51 PM on Tuesday 25 Nov 2014 (Local Time) from KSJT Reporting Station
Clear Clear  
Wind Chill: 43°   Ceiling: Unl
Heat Index: 47°   Visibility: 10mi
Dew Point: 19°   Wind: 9mph
Humidity: 33%   Direction: 240°WSW
Pressure: 30.2"   Gusts: NA
Location:  31.67°N, 100.72°W
Report Text: KSJT 260051Z 24008KT 10SM CLR 08/M07 A3020 RMK AO2 SLP235 T00831072
Loading
Personal Weather Stations






























Interactive Weather Map New forecast layout! Learn more

10-Day Weather Forecast

Advertisements
Track Severe Weather on mobile